createdAt,value
2022-10-05T03:27:45.867Z,97142.63
2022-10-05T03:30:17.559Z,97145.41
2022-10-05T03:32:55.027Z,97152.59
2022-10-05T03:35:29.545Z,97149.16
2022-10-05T03:38:09.373Z,97145.09
2022-10-05T03:40:43.272Z,97148.69
2022-10-05T03:43:29.209Z,97140.03
2022-10-05T03:46:12.711Z,97134.97
2022-10-05T03:48:54.555Z,97136.31
2022-10-05T03:51:26.023Z,97131.59
2022-10-05T03:53:58.806Z,97128.34
2022-10-05T03:56:34.246Z,97121.22
2022-10-05T03:59:10.614Z,97125.16
2022-10-05T04:01:44.247Z,97120.25
2022-10-05T04:04:17.850Z,97123.06
2022-10-05T04:06:57.677Z,97127.16
2022-10-05T04:09:34.188Z,97121.00
2022-10-05T04:12:13.664Z,97121.31
2022-10-05T04:15:01.598Z,97116.09
2022-10-05T04:17:39.330Z,97117.09
2022-10-05T04:59:17.986Z,97104.00
2022-10-05T05:02:04.317Z,97097.81
2022-10-05T05:04:48.283Z,97099.59
2022-10-05T05:07:35.563Z,97115.56
2022-10-05T05:10:27.961Z,97115.56
2022-10-05T05:13:08.951Z,97121.59
2022-10-05T05:23:46.460Z,97138.03
2022-10-05T05:28:57.122Z,97145.53
2022-10-05T05:31:35.989Z,97144.88
2022-10-05T05:34:15.661Z,97152.72
2022-10-05T05:36:57.690Z,97156.94
2022-10-05T05:39:33.769Z,97157.72
2022-10-05T05:44:50.691Z,97167.69
2022-10-05T05:50:09.620Z,97174.22
2022-10-05T05:52:44.409Z,97175.84
2022-10-05T05:55:24.389Z,97177.00
2022-10-05T05:58:02.612Z,97179.63
2022-10-05T06:00:40.275Z,97179.44
2022-10-05T06:03:14.526Z,97191.50
2022-10-05T06:05:47.456Z,97186.09
2022-10-05T06:08:22.924Z,97184.13
2022-10-05T06:10:59.607Z,97185.63
2022-10-05T06:13:35.429Z,97187.75
2022-10-05T06:16:15.822Z,97187.88
2022-10-05T06:18:48.433Z,97194.41
2022-10-05T06:21:26.121Z,97189.97
2022-10-05T06:24:01.510Z,97192.38
2022-10-05T06:26:44.366Z,97200.50
2022-10-05T06:29:18.420Z,97195.78
2022-10-05T06:31:59.374Z,97196.91
2022-10-05T06:34:43.985Z,97195.91
2022-10-05T06:37:22.318Z,97200.72
2022-10-05T06:40:21.321Z,97208.53
2022-10-05T06:43:08.413Z,97201.66
2022-10-05T06:45:56.416Z,97218.56
2022-10-05T06:48:43.728Z,97217.19
2022-10-05T06:51:23.782Z,97219.41
2022-10-05T06:54:04.880Z,97218.50
2022-10-05T06:56:43.802Z,97225.44
2022-10-05T06:59:23.609Z,97229.44
2022-10-05T07:02:08.304Z,97229.50
2022-10-05T07:04:59.891Z,97240.81
2022-10-05T07:07:41.721Z,97234.97
2022-10-05T07:10:29.386Z,97231.38
2022-10-05T07:13:20.194Z,97222.22
2022-10-05T07:16:07.545Z,97218.50
2022-10-05T07:18:53.971Z,97227.41
2022-10-05T07:21:40.803Z,97231.09
2022-10-05T07:24:30.824Z,97231.94
2022-10-05T07:27:11.542Z,97231.22
2022-10-05T07:30:07.884Z,97228.06
2022-10-05T07:33:07.847Z,97237.25
2022-10-05T09:18:43.206Z,97239.47
2022-10-05T11:42:09.376Z,97143.16
2022-10-05T19:48:28.658Z,97217.59
